Time;durP1;ratioP1;P1;durP2;ratioP2;P2;SDS_P1;SDS_P2;PMS_P1;PMS_P2;Temp;Humidity;BMP_temperature;BMP_pressure;BME280_temperature;BME280_humidity;BME280_pressure;Samples;Min_cycle;Max_cycle;Signal;HPM_P1;HPM_P2
2021/12/15 00:01:13;;;;;;;130.25;40.17;;;0.10;2201.60;;;;;;4973723;28;20052;-76
2021/12/15 00:03:39;;;;;;;88.22;37.10;;;0.20;2201.60;;;;;;4991158;28;20101;-76
2021/12/15 00:06:12;;;;;;;104.50;39.03;;;0.20;2201.60;;;;;;4980537;28;20034;-76
2021/12/15 00:08:41;;;;;;;140.73;44.70;;;0.30;2201.60;;;;;;4991532;28;20035;-76
2021/12/15 00:11:07;;;;;;;114.60;40.55;;;0.30;2201.60;;;;;;4990884;28;20122;-77
2021/12/15 00:13:36;;;;;;;160.65;50.90;;;0.30;2201.60;;;;;;4975112;28;20546;-76
2021/12/15 00:16:02;;;;;;;159.23;56.40;;;0.30;2201.60;;;;;;4974888;28;20081;-77
2021/12/15 00:18:28;;;;;;;140.88;58.80;;;0.30;2201.60;;;;;;4988624;28;20022;-77
2021/12/15 00:20:54;;;;;;;115.05;42.72;;;0.30;2201.60;;;;;;4990456;28;20284;-76
2021/12/15 00:23:19;;;;;;;123.55;40.72;;;0.30;2201.60;;;;;;4991184;28;20022;-75
2021/12/15 00:25:45;;;;;;;106.85;36.60;;;0.30;2201.60;;;;;;5022946;28;20090;-76
2021/12/15 00:28:12;;;;;;;112.30;44.35;;;0.20;2201.60;;;;;;5054492;28;20032;-76
2021/12/15 00:30:38;;;;;;;119.35;39.20;;;0.20;2201.60;;;;;;5054892;28;20029;-76
2021/12/15 00:33:06;;;;;;;95.60;37.50;;;0.20;2201.60;;;;;;5059206;28;20321;-76
2021/12/15 00:35:33;;;;;;;170.57;44.88;;;0.20;2201.60;;;;;;5072551;28;20028;-76
2021/12/15 00:37:58;;;;;;;103.78;41.28;;;0.20;2201.60;;;;;;5045112;28;20075;-76
2021/12/15 00:40:25;;;;;;;116.20;37.72;;;0.30;2201.60;;;;;;5031445;28;20063;-76
2021/12/15 00:42:51;;;;;;;123.55;37.88;;;0.30;2201.60;;;;;;5047698;28;20064;-76
2021/12/15 00:45:17;;;;;;;126.60;41.13;;;0.40;2201.60;;;;;;5047687;28;20396;-77
2021/12/15 00:47:44;;;;;;;100.18;37.70;;;0.30;2201.60;;;;;;5045927;28;20039;-76
2021/12/15 00:50:12;;;;;;;125.95;41.70;;;0.30;2201.60;;;;;;5047166;28;20073;-77
2021/12/15 00:52:42;;;;;;;114.25;39.55;;;0.40;2201.60;;;;;;5032594;28;20488;-77
2021/12/15 00:55:10;;;;;;;133.18;42.78;;;0.40;2201.60;;;;;;5032059;28;20487;-76
2021/12/15 00:57:36;;;;;;;149.20;48.50;;;0.40;2201.60;;;;;;5047345;28;20029;-76
2021/12/15 01:00:10;;;;;;;128.63;44.47;;;0.40;2201.60;;;;;;5032283;28;20040;-76
2021/12/15 01:02:36;;;;;;;182.15;53.60;;;0.50;2201.60;;;;;;5032313;28;20499;-76
2021/12/15 01:05:03;;;;;;;173.02;50.88;;;0.50;2201.60;;;;;;5031114;28;20476;-76
2021/12/15 01:07:29;;;;;;;155.90;47.55;;;0.60;2201.60;;;;;;5031943;28;20079;-76
2021/12/15 01:09:58;;;;;;;177.20;51.88;;;0.50;2201.60;;;;;;5031198;28;20065;-77
2021/12/15 01:20:51;;;;;;;129.23;48.60;;;0.60;2201.60;;;;;;5031993;28;20029;-76
2021/12/15 01:23:22;;;;;;;213.93;61.10;;;0.60;2201.60;;;;;;5030384;28;20034;-76
2021/12/15 01:25:52;;;;;;;221.00;57.03;;;0.60;2201.60;;;;;;5030924;28;20061;-76
2021/12/15 01:28:19;;;;;;;254.35;64.47;;;0.60;2201.60;;;;;;5030531;28;20029;-76
2021/12/15 01:30:47;;;;;;;143.45;48.70;;;0.70;2201.60;;;;;;5030859;28;20030;-76
2021/12/15 01:33:14;;;;;;;107.70;44.17;;;0.70;2201.60;;;;;;5030179;28;20029;-76
2021/12/15 01:35:43;;;;;;;157.90;51.33;;;0.80;2201.60;;;;;;5031629;28;20022;-77
2021/12/15 01:38:09;;;;;;;154.15;47.92;;;0.80;2201.60;;;;;;5030535;28;20056;-76
2021/12/15 01:40:40;;;;;;;162.15;49.10;;;0.70;2201.60;;;;;;5030368;28;20029;-76
2021/12/15 01:43:15;;;;;;;162.98;48.17;;;0.70;2201.60;;;;;;5031965;28;20433;-76
2021/12/15 01:48:28;;;;;;;;;;;0.70;2201.60;;;;;;5032057;28;20144;-76
2021/12/15 01:50:54;;;;;;;199.50;51.90;;;0.70;2201.60;;;;;;5032040;28;20376;-76
2021/12/15 01:53:20;;;;;;;198.20;54.90;;;0.80;2201.60;;;;;;5030369;28;20025;-76
2021/12/15 01:55:47;;;;;;;185.60;49.75;;;0.70;2201.60;;;;;;5028212;28;20068;-76
2021/12/15 01:58:13;;;;;;;175.40;50.22;;;0.70;2201.60;;;;;;5024708;28;20025;-76
2021/12/15 02:00:46;;;;;;;176.18;54.63;;;0.70;2201.60;;;;;;5031872;28;20021;-76
2021/12/15 02:03:12;;;;;;;170.70;57.50;;;0.70;2201.60;;;;;;5031362;28;20439;-75
2021/12/15 02:05:38;;;;;;;163.60;59.47;;;0.70;2201.60;;;;;;5029636;28;20117;-75
2021/12/15 02:08:05;;;;;;;183.80;63.72;;;0.70;2201.60;;;;;;5031756;28;20029;-76
2021/12/15 02:10:34;;;;;;;210.10;70.40;;;0.70;2201.60;;;;;;5030167;28;20025;-75
2021/12/15 02:13:12;;;;;;;165.77;61.47;;;0.70;2201.60;;;;;;5030456;28;20492;-75
2021/12/15 02:15:41;;;;;;;212.02;69.82;;;0.70;2201.60;;;;;;5031182;28;20026;-75
2021/12/15 02:18:13;;;;;;;202.75;65.75;;;0.70;2201.60;;;;;;5030194;28;20026;-75
2021/12/15 02:20:49;;;;;;;156.18;68.03;;;0.60;2201.60;;;;;;5031529;28;20048;-75
2021/12/15 02:23:18;;;;;;;208.48;70.50;;;0.70;2201.60;;;;;;5031286;28;20032;-75
2021/12/15 02:25:45;;;;;;;201.65;64.82;;;0.70;2201.60;;;;;;5033758;28;20033;-75
2021/12/15 02:28:12;;;;;;;184.00;63.53;;;0.60;2201.60;;;;;;5033432;28;20078;-75
2021/12/15 02:30:55;;;;;;;163.68;59.35;;;0.60;2201.60;;;;;;5035018;28;20104;-75
2021/12/15 02:33:50;;;;;;;158.73;60.45;;;0.60;2201.60;;;;;;5034800;28;20025;-75
2021/12/15 02:39:07;;;;;;;158.80;54.95;;;0.60;2201.60;;;;;;5061700;28;20079;-76
2021/12/15 02:41:33;;;;;;;136.50;56.13;;;0.60;2201.60;;;;;;5074955;28;20078;-75
2021/12/15 02:44:07;;;;;;;124.82;52.22;;;0.60;2201.60;;;;;;5056327;28;20033;-75
2021/12/15 02:46:35;;;;;;;102.38;46.25;;;0.60;2201.60;;;;;;5056448;28;20050;-76
2021/12/15 02:49:02;;;;;;;108.07;44.95;;;0.50;2201.60;;;;;;5056730;28;20498;-76
2021/12/15 02:51:29;;;;;;;117.93;49.88;;;0.50;2201.60;;;;;;5056232;28;20040;-75
2021/12/15 02:53:56;;;;;;;119.85;51.80;;;0.40;2201.60;;;;;;5056307;28;20059;-75
2021/12/15 02:56:22;;;;;;;109.75;47.65;;;0.40;2201.60;;;;;;5043234;28;20555;-75
2021/12/15 02:58:53;;;;;;;125.57;54.05;;;0.40;2201.60;;;;;;5054634;28;20029;-75
2021/12/15 03:01:34;;;;;;;131.32;55.85;;;0.40;2201.60;;;;;;5036236;28;20024;-75
2021/12/15 03:04:47;;;;;;;114.10;55.13;;;0.40;2201.60;;;;;;5054050;28;20017;-75
2021/12/15 03:06:55;;;;;;;114.95;57.17;;;0.40;2201.60;;;;;;5045967;28;20074;-75
2021/12/15 03:17:36;;;;;;;98.38;45.50;;;0.40;2201.60;;;;;;5054544;28;20064;-75
2021/12/15 03:20:03;;;;;;;119.55;46.38;;;0.40;2201.60;;;;;;5035658;28;20023;-75
2021/12/15 03:22:29;;;;;;;97.78;42.67;;;0.40;2201.60;;;;;;5053882;28;20025;-75
2021/12/15 03:24:55;;;;;;;81.55;38.70;;;0.40;2201.60;;;;;;5062587;28;20052;-75
2021/12/15 03:33:12;;;;;;;101.45;45.97;;;0.40;2201.60;;;;;;5092033;28;20506;-75
2021/12/15 03:35:48;;;;;;;118.43;50.75;;;0.50;2201.60;;;;;;5053224;28;20078;-76
2021/12/15 03:38:14;;;;;;;106.30;49.72;;;0.40;2201.60;;;;;;5052231;28;20059;-76
2021/12/15 03:40:42;;;;;;;108.97;42.78;;;0.50;2201.60;;;;;;5053260;28;20029;-76
2021/12/15 03:43:13;;;;;;;118.50;46.25;;;0.60;2201.60;;;;;;5053699;28;20464;-76
2021/12/15 03:45:47;;;;;;;103.22;41.15;;;0.50;2201.60;;;;;;5053493;28;20100;-75
2021/12/15 03:48:16;;;;;;;122.78;42.80;;;0.40;2201.60;;;;;;5053216;28;20024;-76
2021/12/15 03:50:44;;;;;;;115.63;47.67;;;0.40;2201.60;;;;;;5052033;28;20124;-76
2021/12/15 03:53:11;;;;;;;115.35;45.25;;;0.40;2201.60;;;;;;5058115;28;20055;-76
2021/12/15 03:55:38;;;;;;;108.30;41.00;;;0.40;2201.60;;;;;;5073527;28;20024;-76
2021/12/15 03:58:09;;;;;;;121.13;43.85;;;0.40;2201.60;;;;;;5088569;28;20073;-76
2021/12/15 04:00:38;;;;;;;114.47;40.05;;;0.40;2201.60;;;;;;5088745;28;20110;-76
2021/12/15 04:03:04;;;;;;;139.18;41.22;;;0.40;2201.60;;;;;;5073653;28;20005;-76
2021/12/15 04:05:30;;;;;;;111.20;41.78;;;0.40;2201.60;;;;;;5072817;28;20514;-76
2021/12/15 04:07:57;;;;;;;103.20;39.22;;;0.40;2201.60;;;;;;5088796;28;20074;-76
2021/12/15 04:10:25;;;;;;;96.72;35.35;;;0.40;2201.60;;;;;;5072922;28;20391;-76
2021/12/15 04:12:51;;;;;;;98.88;35.60;;;0.40;2201.60;;;;;;5073296;28;20491;-76
2021/12/15 04:17:50;;;;;;;90.70;34.90;;;0.50;2201.60;;;;;;5073342;28;20111;-77
2021/12/15 04:20:18;;;;;;;109.00;43.22;;;0.40;2201.60;;;;;;5088207;28;20372;-77
2021/12/15 04:22:45;;;;;;;116.28;39.88;;;0.40;2201.60;;;;;;5087813;28;20041;-76
2021/12/15 04:25:14;;;;;;;92.45;34.75;;;0.40;2201.60;;;;;;5068958;28;20024;-77
2021/12/15 04:27:56;;;;;;;83.47;34.65;;;0.50;2201.60;;;;;;5060362;28;20565;-76
2021/12/15 04:30:24;;;;;;;113.95;38.08;;;0.50;2201.60;;;;;;5065386;28;20021;-76
2021/12/15 04:32:51;;;;;;;97.15;35.08;;;0.40;2201.60;;;;;;5063181;28;20044;-76
2021/12/15 04:35:16;;;;;;;104.40;34.70;;;0.40;2201.60;;;;;;5052463;28;20035;-76
2021/12/15 04:37:43;;;;;;;124.63;38.78;;;0.40;2201.60;;;;;;5054505;28;20119;-76
2021/12/15 04:40:11;;;;;;;98.95;33.70;;;0.30;2201.60;;;;;;5054585;28;20021;-76
2021/12/15 04:42:38;;;;;;;105.82;35.78;;;0.30;2201.60;;;;;;5054885;28;20020;-76
2021/12/15 04:45:07;;;;;;;101.80;40.58;;;0.30;2201.60;;;;;;5064075;28;20252;-76
2021/12/15 04:47:32;;;;;;;113.05;38.38;;;0.30;2201.60;;;;;;5061261;28;20043;-77
2021/12/15 04:49:59;;;;;;;130.35;41.40;;;0.40;2201.60;;;;;;5067487;28;20483;-76
2021/12/15 04:52:28;;;;;;;139.38;42.20;;;0.40;2201.60;;;;;;5064026;28;20028;-76
2021/12/15 04:54:56;;;;;;;134.75;42.17;;;0.40;2201.60;;;;;;5067099;28;20487;-76
2021/12/15 04:57:22;;;;;;;101.85;38.03;;;0.40;2201.60;;;;;;5061343;28;20017;-76
2021/12/15 04:59:49;;;;;;;106.15;39.63;;;0.30;2201.60;;;;;;5063569;28;20053;-76
2021/12/15 05:02:17;;;;;;;113.82;42.47;;;0.40;2201.60;;;;;;5045925;28;20118;-76
2021/12/15 05:04:43;;;;;;;106.88;38.17;;;0.40;2201.60;;;;;;5043219;28;20479;-77
2021/12/15 05:07:09;;;;;;;137.43;45.38;;;0.50;2201.60;;;;;;5053895;28;20170;-77
2021/12/15 05:09:36;;;;;;;122.75;41.20;;;0.60;2201.60;;;;;;5045720;28;20044;-77
2021/12/15 05:12:03;;;;;;;141.18;44.88;;;0.60;2201.60;;;;;;5045774;28;20411;-76
2021/12/15 05:14:29;;;;;;;119.82;41.95;;;0.60;2201.60;;;;;;5050849;28;20540;-76
2021/12/15 05:16:55;;;;;;;107.00;43.03;;;0.70;2201.60;;;;;;5051732;28;20116;-76
2021/12/15 05:19:21;;;;;;;118.05;43.10;;;0.80;2201.60;;;;;;5033799;28;20060;-76
2021/12/15 05:21:50;;;;;;;105.30;41.97;;;0.80;2201.60;;;;;;5052086;28;20017;-76
2021/12/15 05:26:50;;;;;;;108.20;39.75;;;0.80;2201.60;;;;;;5052319;28;20091;-76
2021/12/15 05:29:16;;;;;;;135.80;43.75;;;0.80;2201.60;;;;;;5033880;28;20033;-77
2021/12/15 05:31:41;;;;;;;111.32;41.97;;;0.80;2201.60;;;;;;5034336;28;20468;-76
2021/12/15 05:34:07;;;;;;;114.78;41.30;;;0.90;2201.60;;;;;;5033659;28;20127;-76
2021/12/15 05:36:33;;;;;;;126.10;45.15;;;25.60;2201.60;;;;;;5034034;28;20477;-77
2021/12/15 05:38:59;;;;;;;121.30;44.85;;;25.60;2201.60;;;;;;5051551;28;20090;-77
2021/12/15 05:41:25;;;;;;;154.25;53.97;;;25.60;2201.60;;;;;;5044427;28;20513;-76
2021/12/15 05:43:51;;;;;;;122.07;45.10;;;25.60;2201.60;;;;;;5071644;28;20543;-77
2021/12/15 05:46:16;;;;;;;145.85;46.58;;;25.60;2201.60;;;;;;5053523;28;20119;-77
2021/12/15 05:48:42;;;;;;;172.05;52.15;;;0.90;2201.60;;;;;;5053914;28;20471;-77
2021/12/15 05:51:08;;;;;;;145.75;40.85;;;0.80;2201.60;;;;;;5071279;28;20054;-77
2021/12/15 05:53:34;;;;;;;165.38;51.45;;;0.70;2201.60;;;;;;5070155;28;20060;-76
2021/12/15 05:56:00;;;;;;;136.02;42.42;;;0.60;2201.60;;;;;;5044959;28;20041;-76
2021/12/15 05:58:26;;;;;;;178.57;45.38;;;0.60;2201.60;;;;;;5033997;28;20021;-76
2021/12/15 06:00:51;;;;;;;206.90;56.55;;;0.60;2201.60;;;;;;5038842;28;20021;-76
2021/12/15 06:03:17;;;;;;;186.73;56.08;;;0.50;2201.60;;;;;;5037649;28;20025;-76
2021/12/15 06:05:43;;;;;;;122.20;42.70;;;0.50;2201.60;;;;;;5055189;28;20492;-76
2021/12/15 06:08:09;;;;;;;153.05;43.50;;;0.50;2201.60;;;;;;5037284;28;20498;-76
2021/12/15 06:10:39;;;;;;;119.40;37.95;;;0.50;2201.60;;;;;;5046067;28;20154;-76
2021/12/15 06:13:07;;;;;;;108.30;35.15;;;0.50;2201.60;;;;;;5075156;28;20017;-76
2021/12/15 06:15:34;;;;;;;103.72;33.75;;;0.50;2201.60;;;;;;5067832;28;20082;-76
2021/12/15 06:18:08;;;;;;;105.90;34.78;;;0.50;2201.60;;;;;;5037157;28;20396;-77
2021/12/15 06:20:35;;;;;;;113.13;34.85;;;0.40;2201.60;;;;;;5055572;28;20025;-77
2021/12/15 06:23:06;;;;;;;112.65;36.35;;;0.50;2201.60;;;;;;5060354;28;20032;-77
2021/12/15 06:25:32;;;;;;;76.97;33.13;;;0.50;2201.60;;;;;;5045462;28;20029;-77
2021/12/15 06:27:58;;;;;;;94.88;34.28;;;0.40;2201.60;;;;;;5070469;28;20074;-80
2021/12/15 06:30:25;;;;;;;79.65;32.08;;;0.40;2201.60;;;;;;5076086;28;20533;-78
2021/12/15 06:32:51;;;;;;;136.77;34.65;;;0.30;2201.60;;;;;;5048281;28;20495;-77
2021/12/15 06:35:17;;;;;;;91.70;32.70;;;0.40;2201.60;;;;;;5053105;28;20033;-79
2021/12/15 06:37:42;;;;;;;80.97;31.48;;;0.40;2201.60;;;;;;5050363;28;20036;-78
2021/12/15 06:40:10;;;;;;;153.68;36.25;;;0.40;2201.60;;;;;;5055520;28;20062;-78
2021/12/15 06:42:37;;;;;;;149.82;40.10;;;0.50;2201.60;;;;;;5053056;28;20040;-78
2021/12/15 06:45:04;;;;;;;128.52;44.40;;;0.40;2201.60;;;;;;5053085;28;20119;-78
2021/12/15 06:58:17;;;;;;;118.25;44.03;;;0.70;2201.60;;;;;;5063435;28;20927;-78
2021/12/15 07:00:48;;;;;;;98.25;42.50;;;0.80;2201.60;;;;;;5049336;28;20035;-78
2021/12/15 07:03:16;;;;;;;90.97;37.05;;;0.80;2201.60;;;;;;5046229;28;20104;-78
2021/12/15 07:05:42;;;;;;;90.95;36.55;;;0.80;2201.60;;;;;;5054900;28;20163;-79
2021/12/15 07:08:09;;;;;;;82.22;32.35;;;0.90;2201.60;;;;;;5052652;28;20119;-79
2021/12/15 07:10:39;;;;;;;80.43;36.47;;;0.80;2201.60;;;;;;5059236;28;20442;-79
2021/12/15 07:13:05;;;;;;;82.80;34.92;;;0.80;2201.60;;;;;;5050701;28;20064;-79
2021/12/15 07:15:34;;;;;;;88.93;37.55;;;0.80;2201.60;;;;;;5045338;28;20112;-78
2021/12/15 07:18:04;;;;;;;86.82;33.45;;;0.90;2201.60;;;;;;5053876;28;20403;-78
2021/12/15 07:20:40;;;;;;;96.55;38.25;;;0.80;2201.60;;;;;;5052497;28;20071;-79
2021/12/15 07:23:16;;;;;;;114.93;38.45;;;0.80;2201.60;;;;;;5053352;28;20139;-78
2021/12/15 07:25:46;;;;;;;82.90;34.73;;;0.90;2201.60;;;;;;5061474;28;20106;-79
2021/12/15 07:28:12;;;;;;;101.13;41.28;;;0.90;2201.60;;;;;;5041757;28;20281;-79
2021/12/15 07:30:38;;;;;;;91.47;39.80;;;0.90;2201.60;;;;;;5067009;28;20029;-78
2021/12/15 07:33:06;;;;;;;111.80;46.20;;;0.90;2201.60;;;;;;5059332;28;20397;-78
2021/12/15 07:35:32;;;;;;;97.57;42.13;;;0.90;2201.60;;;;;;5050867;28;20027;-80
2021/12/15 07:37:57;;;;;;;115.85;44.10;;;25.60;2201.60;;;;;;5045903;28;20071;-78
2021/12/15 07:40:25;;;;;;;110.65;44.50;;;0.90;2201.60;;;;;;5028856;28;20363;-78
2021/12/15 07:43:14;;;;;;;112.97;49.33;;;25.60;2201.60;;;;;;5029018;28;20076;-80
2021/12/15 07:45:52;;;;;;;113.55;49.72;;;25.70;2201.60;;;;;;5036665;28;20029;-79
2021/12/15 07:48:20;;;;;;;106.95;42.88;;;25.80;2201.60;;;;;;5029779;28;20492;-79
2021/12/15 07:50:50;;;;;;;97.38;43.80;;;25.70;2201.60;;;;;;5038640;28;20041;-80
2021/12/15 07:53:16;;;;;;;100.75;41.30;;;25.80;2201.60;;;;;;5021766;28;20104;-78
2021/12/15 07:55:42;;;;;;;104.88;47.22;;;25.80;2201.60;;;;;;5023922;28;20017;-79
2021/12/15 07:58:09;;;;;;;105.00;49.80;;;25.90;2201.60;;;;;;5021785;28;20576;-78
2021/12/15 08:00:39;;;;;;;120.25;57.63;;;25.90;2201.60;;;;;;5025214;28;20057;-79
2021/12/15 08:03:06;;;;;;;135.85;63.30;;;26.00;2201.60;;;;;;5019929;28;20489;-78
2021/12/15 08:05:32;;;;;;;123.93;58.45;;;26.10;2201.60;;;;;;5022649;28;20104;-79
2021/12/15 08:07:58;;;;;;;116.32;54.13;;;26.10;2201.60;;;;;;5025736;28;20030;-79
2021/12/15 08:10:24;;;;;;;103.10;48.65;;;26.10;2201.60;;;;;;5024836;28;20029;-82
2021/12/15 08:12:50;;;;;;;109.90;47.80;;;26.20;2201.60;;;;;;5024153;28;20022;-78
2021/12/15 08:15:17;;;;;;;101.80;47.67;;;26.20;2201.60;;;;;;5038062;28;20030;-79
2021/12/15 08:17:48;;;;;;;81.72;39.13;;;26.20;2201.60;;;;;;5022704;28;20025;-78
2021/12/15 08:20:16;;;;;;;82.72;38.47;;;26.30;2201.60;;;;;;5018505;28;20421;-78
2021/12/15 08:22:42;;;;;;;89.90;41.40;;;26.40;2201.60;;;;;;5022250;28;20029;-78
2021/12/15 08:25:10;;;;;;;79.40;37.08;;;26.30;2201.60;;;;;;5030762;28;20037;-78
2021/12/15 08:27:38;;;;;;;81.22;36.58;;;26.40;2201.60;;;;;;5020357;28;20492;-78
2021/12/15 08:30:08;;;;;;;67.88;32.38;;;26.40;2201.60;;;;;;5021252;28;20036;-78
2021/12/15 08:32:34;;;;;;;63.67;31.27;;;26.30;2201.60;;;;;;5027901;28;20109;-77
2021/12/15 08:35:00;;;;;;;70.78;33.40;;;26.20;2201.60;;;;;;5028755;28;20120;-77
2021/12/15 08:37:27;;;;;;;74.88;35.53;;;26.20;2201.60;;;;;;5030198;28;20070;-77
2021/12/15 08:39:52;;;;;;;96.65;33.47;;;26.20;2201.60;;;;;;5060906;28;20033;-76
2021/12/15 08:42:18;;;;;;;70.22;32.65;;;26.20;2201.60;;;;;;5063265;28;20070;-76
2021/12/15 08:44:44;;;;;;;75.40;37.20;;;26.30;2201.60;;;;;;5050136;28;20017;-78
2021/12/15 08:47:10;;;;;;;82.72;38.97;;;26.20;2201.60;;;;;;5048054;28;20020;-78
2021/12/15 08:49:36;;;;;;;78.20;35.47;;;26.20;2201.60;;;;;;5063215;28;20544;-79
2021/12/15 08:52:04;;;;;;;79.78;38.00;;;26.30;2201.60;;;;;;5043333;28;20032;-79
2021/12/15 08:54:30;;;;;;;99.95;47.42;;;26.30;2201.60;;;;;;5061675;28;20035;-79
2021/12/15 08:56:56;;;;;;;92.57;39.67;;;26.30;2201.60;;;;;;5050302;28;20049;-80
2021/12/15 08:59:23;;;;;;;112.93;45.92;;;26.20;2201.60;;;;;;5058343;28;20021;-79
2021/12/15 09:01:51;;;;;;;95.60;43.65;;;26.20;2201.60;;;;;;5047070;28;20823;-79
2021/12/15 09:04:18;;;;;;;80.45;38.17;;;26.20;2201.60;;;;;;5050671;28;20020;-79
2021/12/15 09:06:44;;;;;;;82.47;38.67;;;26.30;2201.60;;;;;;5049873;28;20062;-80
2021/12/15 09:09:13;;;;;;;87.50;38.75;;;26.20;2201.60;;;;;;5060493;28;20055;-79
2021/12/15 09:11:39;;;;;;;75.32;37.13;;;26.20;2201.60;;;;;;5060585;28;20041;-80
2021/12/15 09:14:07;;;;;;;74.35;30.08;;;26.20;2201.60;;;;;;5052272;28;20028;-79
2021/12/15 09:16:35;;;;;;;95.43;33.40;;;26.20;2201.60;;;;;;5043181;28;20435;-78
2021/12/15 09:19:02;;;;;;;67.93;31.98;;;26.30;2201.60;;;;;;5047100;28;20017;-78
2021/12/15 09:21:30;;;;;;;78.70;30.63;;;26.30;2201.60;;;;;;5044726;28;20029;-78
2021/12/15 09:23:57;;;;;;;56.95;24.65;;;26.30;2201.60;;;;;;5064975;28;20025;-78
2021/12/15 09:26:23;;;;;;;56.78;25.77;;;26.30;2201.60;;;;;;5062851;28;20064;-79
2021/12/15 09:28:49;;;;;;;66.00;28.98;;;26.30;2201.60;;;;;;5062803;28;20420;-78
2021/12/15 09:31:16;;;;;;;95.85;33.63;;;26.30;2201.60;;;;;;5043343;28;20037;-79
2021/12/15 09:33:48;;;;;;;70.43;31.52;;;26.30;2201.60;;;;;;5044895;28;20039;-79
2021/12/15 09:36:16;;;;;;;57.55;27.65;;;26.20;2201.60;;;;;;5067249;28;20476;-78
2021/12/15 09:38:44;;;;;;;58.80;26.55;;;26.30;2201.60;;;;;;5067161;28;20044;-79
2021/12/15 09:41:14;;;;;;;70.03;30.15;;;26.20;2201.60;;;;;;5057542;28;20028;-79
2021/12/15 09:43:42;;;;;;;66.97;29.95;;;26.20;2201.60;;;;;;5045196;28;20075;-79
2021/12/15 09:57:16;;;;;;;;;;;26.10;2201.60;;;;;;5062628;28;20060;-78
2021/12/15 10:05:42;;;;;;;55.78;23.48;;;26.20;2201.60;;;;;;5064955;28;20078;-78
2021/12/15 10:10:49;;;;;;;54.85;28.02;;;26.40;2201.60;;;;;;5063411;28;20043;-79
2021/12/15 10:19:53;;;;;;;59.08;26.35;;;26.50;2201.60;;;;;;5033474;28;20531;-79
2021/12/15 10:22:33;;;;;;;55.17;25.50;;;51.20;2227.20;;;;;;5009027;28;20806;-79
2021/12/15 10:25:04;;;;;;;45.40;22.63;;;51.20;2227.20;;;;;;5030725;28;20026;-80
2021/12/15 10:27:47;;;;;;;57.78;26.58;;;51.20;2227.20;;;;;;5016827;28;20389;-79
2021/12/15 10:30:15;;;;;;;56.67;27.83;;;51.20;2227.20;;;;;;5016218;28;20416;-80
2021/12/15 10:32:43;;;;;;;61.42;30.25;;;51.20;2227.20;;;;;;5016433;28;20053;-80
2021/12/15 10:35:18;;;;;;;73.45;33.33;;;51.30;2227.20;;;;;;5032593;28;20022;-81
2021/12/15 10:38:10;;;;;;;69.32;29.90;;;51.30;2227.20;;;;;;5032417;28;20047;-79
2021/12/15 10:40:44;;;;;;;79.03;35.97;;;51.40;2227.20;;;;;;5032326;28;20036;-78
2021/12/15 10:43:10;;;;;;;95.63;42.65;;;51.30;2227.20;;;;;;5018883;28;20591;-79
2021/12/15 10:45:42;;;;;;;88.90;40.67;;;51.20;2227.20;;;;;;5025789;28;20041;-78
2021/12/15 10:48:14;;;;;;;85.97;44.17;;;51.20;2227.20;;;;;;5031970;28;20064;-78
2021/12/15 10:50:41;;;;;;;107.50;51.78;;;51.30;2227.20;;;;;;5032502;28;20033;-78
2021/12/15 10:53:07;;;;;;;94.57;44.95;;;51.40;2227.20;;;;;;5032728;28;20076;-78
2021/12/15 10:55:37;;;;;;;105.90;46.28;;;51.60;2227.20;;;;;;5044950;28;20045;-78
2021/12/15 10:58:33;;;;;;;97.00;46.78;;;51.60;2227.20;;;;;;5062244;28;20037;-78
2021/12/15 11:01:02;;;;;;;85.15;43.65;;;51.60;2227.20;;;;;;5045463;28;20017;-80
2021/12/15 11:03:37;;;;;;;84.85;40.38;;;51.70;2227.20;;;;;;5064182;28;20071;-78
2021/12/15 11:06:30;;;;;;;94.93;43.13;;;51.80;2227.20;;;;;;5060884;28;20029;-78
2021/12/15 11:09:20;;;;;;;91.95;42.53;;;51.70;2227.20;;;;;;5066684;28;20100;-76
2021/12/15 11:12:02;;;;;;;99.80;43.35;;;51.70;2227.20;;;;;;5046247;28;20029;-78
2021/12/15 11:14:33;;;;;;;98.30;47.15;;;51.70;2227.20;;;;;;5052595;28;20024;-78
2021/12/15 11:17:26;;;;;;;98.03;45.88;;;51.50;2227.20;;;;;;5063165;28;20025;-78
2021/12/15 11:20:16;;;;;;;91.55;44.25;;;51.60;2227.20;;;;;;5060925;28;20079;-77
2021/12/15 11:22:44;;;;;;;103.68;50.30;;;51.60;2227.20;;;;;;5053014;28;20226;-78
2021/12/15 11:25:28;;;;;;;101.25;48.72;;;51.50;2227.20;;;;;;5062339;28;20025;-78
2021/12/15 11:28:05;;;;;;;102.15;47.85;;;51.70;2227.20;;;;;;5053458;28;20021;-77
2021/12/15 11:30:36;;;;;;;107.45;50.45;;;51.70;2227.20;;;;;;5044145;28;20025;-77
2021/12/15 11:33:10;;;;;;;103.80;51.17;;;51.80;2227.20;;;;;;5053088;28;20044;-77
2021/12/15 11:35:43;;;;;;;93.63;45.90;;;51.90;2227.20;;;;;;5065147;28;20032;-78
2021/12/15 11:38:17;;;;;;;99.15;47.40;;;51.90;2227.20;;;;;;5062580;28;20037;-79
2021/12/15 11:41:00;;;;;;;88.63;45.92;;;51.90;2227.20;;;;;;5064347;28;20732;-78
2021/12/15 11:44:08;;;;;;;96.80;45.97;;;52.00;2227.20;;;;;;5047339;28;20033;-77
2021/12/15 11:46:38;;;;;;;94.63;48.95;;;51.90;2227.20;;;;;;4989186;28;20042;-78
2021/12/15 11:49:17;;;;;;;82.82;43.97;;;51.90;2227.20;;;;;;5002505;28;20034;-77
2021/12/15 11:51:58;;;;;;;89.47;43.45;;;51.90;2227.20;;;;;;4992275;28;20050;-77
2021/12/15 11:54:28;;;;;;;94.55;48.47;;;52.00;2227.20;;;;;;5009555;28;20030;-77
2021/12/15 11:56:59;;;;;;;98.60;45.17;;;52.00;2227.20;;;;;;5002124;28;20038;-77
2021/12/15 11:59:39;;;;;;;88.78;44.42;;;52.00;2227.20;;;;;;5003794;28;20023;-77
2021/12/15 12:02:09;;;;;;;100.60;48.60;;;52.00;2227.20;;;;;;4993394;28;20053;-78
2021/12/15 12:04:46;;;;;;;96.95;48.05;;;52.00;2227.20;;;;;;5007724;28;20033;-78
2021/12/15 12:07:34;;;;;;;98.65;51.42;;;52.10;2227.20;;;;;;5005839;28;20389;-77
2021/12/15 12:10:03;;;;;;;104.40;51.15;;;52.00;2227.20;;;;;;5008880;28;20041;-77
2021/12/15 12:12:36;;;;;;;110.32;54.95;;;52.10;2227.20;;;;;;5002625;28;20044;-77
2021/12/15 12:15:04;;;;;;;111.75;53.08;;;52.10;2227.20;;;;;;4991367;28;20022;-77
2021/12/15 12:17:33;;;;;;;108.15;47.85;;;52.10;2227.20;;;;;;5001901;28;20034;-77
2021/12/15 12:20:15;;;;;;;115.97;53.58;;;52.10;2227.20;;;;;;4999488;28;20436;-76
2021/12/15 12:22:45;;;;;;;110.38;53.60;;;52.00;2227.20;;;;;;4998826;28;20479;-76
2021/12/15 12:25:15;;;;;;;126.15;51.70;;;52.00;2227.20;;;;;;5054565;28;20033;-77
2021/12/15 12:27:43;;;;;;;101.35;51.95;;;52.00;2227.20;;;;;;5066443;28;20021;-77
2021/12/15 12:30:13;;;;;;;115.03;52.95;;;52.00;2227.20;;;;;;5044622;28;20386;-77
2021/12/15 12:32:40;;;;;;;98.13;48.50;;;52.10;2227.20;;;;;;5045301;28;20016;-76
2021/12/15 12:35:09;;;;;;;100.88;48.45;;;52.10;2227.20;;;;;;5065038;28;20017;-77
2021/12/15 12:37:37;;;;;;;116.28;50.75;;;52.10;2227.20;;;;;;5060619;28;20135;-77
2021/12/15 12:40:21;;;;;;;108.60;51.40;;;52.10;2227.20;;;;;;5046444;28;20430;-75
2021/12/15 12:42:47;;;;;;;106.35;54.13;;;76.80;2227.20;;;;;;5051738;28;20016;-77
2021/12/15 12:45:38;;;;;;;102.90;51.97;;;76.80;2227.20;;;;;;5061889;28;20025;-77
2021/12/15 12:48:53;;;;;;;110.82;57.03;;;76.80;2227.20;;;;;;5038874;28;20021;-77
2021/12/15 12:59:42;;;;;;;122.25;57.13;;;76.80;2227.20;;;;;;5055745;28;20036;-76
2021/12/15 13:02:28;;;;;;;117.97;57.42;;;52.10;2227.20;;;;;;5049948;28;20111;-77
2021/12/15 13:04:54;;;;;;;111.82;57.08;;;76.80;2227.20;;;;;;5050424;28;20063;-77
2021/12/15 13:07:46;;;;;;;106.25;56.35;;;52.10;2227.20;;;;;;5057020;28;20506;-76
2021/12/15 13:10:12;;;;;;;102.63;53.25;;;52.00;2227.20;;;;;;5053722;28;20044;-76
2021/12/15 13:12:44;;;;;;;115.85;55.35;;;52.00;2227.20;;;;;;5065473;28;20059;-76
2021/12/15 13:15:10;;;;;;;108.63;57.17;;;76.80;2227.20;;;;;;5051596;28;20044;-76
2021/12/15 13:17:59;;;;;;;116.15;54.67;;;52.10;2227.20;;;;;;5059677;28;20549;-76
2021/12/15 13:20:31;;;;;;;116.65;58.67;;;76.80;2227.20;;;;;;5049110;28;20111;-76
2021/12/15 13:23:30;;;;;;;103.75;52.45;;;76.80;2227.20;;;;;;5061031;28;20025;-79
2021/12/15 13:28:47;;;;;;;100.28;54.25;;;52.10;2227.20;;;;;;5052052;28;20041;-76
2021/12/15 13:31:26;;;;;;;98.90;56.63;;;52.00;2227.20;;;;;;5055937;28;20028;-77
2021/12/15 13:33:54;;;;;;;94.65;47.83;;;52.10;2227.20;;;;;;5044549;28;20078;-76
2021/12/15 13:36:28;;;;;;;93.97;47.25;;;52.00;2227.20;;;;;;5061883;28;20028;-75
2021/12/15 13:38:59;;;;;;;88.25;48.38;;;52.10;2227.20;;;;;;5061538;28;20183;-76
2021/12/15 13:42:08;;;;;;;84.80;44.60;;;52.00;2227.20;;;;;;5043287;28;20029;-75
2021/12/15 13:44:48;;;;;;;92.50;47.72;;;52.00;2227.20;;;;;;5055506;28;20017;-76